Time;durP1;ratioP1;P1;durP2;ratioP2;P2;SDS_P1;SDS_P2;PMS_P1;PMS_P2;Temp;Humidity;BMP_temperature;BMP_pressure;BME280_temperature;BME280_humidity;BME280_pressure;Samples;Min_cycle;Max_cycle;Signal;HPM_P1;HPM_P2
2021/12/05 00:26:39;;;;;;;63.37;26.17;;;;;;;1.05;100.00;99207.05;715305;1178;114916;-71
2021/12/05 01:27:41;;;;;;;44.90;21.98;;;;;;;0.62;100.00;99247.63;717419;1201;114618;-72
2021/12/05 01:58:37;;;;;;;58.98;25.58;;;;;;;0.57;100.00;99257.41;715594;1203;114342;-71
2021/12/05 02:44:25;;;;;;;42.00;21.15;;;;;;;0.30;100.00;99239.31;714247;1200;114965;-73
2021/12/05 03:14:39;;;;;;;54.95;21.58;;;;;;;0.43;100.00;99245.36;714243;1178;113271;-72
2021/12/05 03:29:41;;;;;;;82.83;29.88;;;;;;;0.38;100.00;99251.73;714151;1200;114255;-73
2021/12/05 03:44:44;;;;;;;73.95;27.05;;;;;;;0.27;100.00;99242.09;713986;1178;114201;-73
2021/12/05 03:59:46;;;;;;;56.60;24.78;;;;;;;0.22;100.00;99246.70;714529;1177;114815;-73
2021/12/05 04:14:54;;;;;;;43.90;19.90;;;;;;;0.13;100.00;99248.93;714107;1194;113849;-73
2021/12/05 04:29:56;;;;;;;55.73;23.13;;;;;;;0.16;100.00;99278.88;714809;1200;114097;-73
2021/12/05 04:45:01;;;;;;;50.37;23.30;;;;;;;0.00;100.00;99286.71;714771;1199;114178;-72
2021/12/05 05:00:07;;;;;;;59.80;23.95;;;;;;;-0.17;100.00;99300.61;714070;1205;114534;-75
2021/12/05 05:15:12;;;;;;;56.83;22.53;;;;;;;-0.24;100.00;99310.45;714080;1202;115455;-75
2021/12/05 06:00:33;;;;;;;71.60;27.90;;;;;;;-0.37;100.00;99335.26;714342;1176;115732;-74
2021/12/05 06:15:36;;;;;;;83.70;34.10;;;;;;;-0.20;100.00;99348.02;714480;1201;114493;-75
2021/12/05 06:31:09;;;;;;;76.85;30.05;;;;;;;-0.17;100.00;99362.48;713906;1200;115177;-75
2021/12/05 07:01:21;;;;;;;121.43;39.53;;;;;;;0.02;100.00;99390.59;714283;1186;115818;-75
2021/12/05 07:46:54;;;;;;;63.63;29.80;;;;;;;0.43;100.00;99432.92;714393;1202;114139;-75
2021/12/05 08:17:21;;;;;;;73.37;32.13;;;;;;;0.88;99.85;99449.13;716256;1200;115704;-75
2021/12/05 08:32:39;;;;;;;80.00;39.40;;;;;;;1.00;98.62;99457.88;715491;1200;114038;-71
2021/12/05 10:20:41;;;;;;;142.43;49.55;;;;;;;2.11;92.89;99481.06;715700;1199;114067;-73
2021/12/05 10:36:18;;;;;;;275.23;75.60;;;;;;;2.15;91.33;99473.02;715747;1182;114556;-73
2021/12/05 10:51:27;;;;;;;223.97;64.80;;;;;;;2.21;90.65;99484.71;715823;1193;114401;-73
2021/12/05 11:06:36;;;;;;;225.07;79.83;;;;;;;2.25;89.85;99486.16;715557;1178;114363;-73
2021/12/05 11:21:47;;;;;;;321.57;98.07;;;;;;;2.41;89.27;99488.56;715538;1199;114107;-73
2021/12/05 11:36:57;;;;;;;223.48;66.35;;;;;;;2.73;88.96;99492.51;716844;1193;114191;-73
2021/12/05 11:52:02;;;;;;;262.40;88.35;;;;;;;2.89;87.71;99497.47;715306;1176;112893;-72
2021/12/05 12:07:10;;;;;;;316.85;101.75;;;;;;;2.74;86.95;99510.53;715120;1193;114360;-71
2021/12/05 12:22:13;;;;;;;232.78;57.50;;;;;;;2.66;86.72;99492.91;715280;1202;115010;-73
2021/12/05 12:37:16;;;;;;;139.23;47.57;;;;;;;2.82;86.20;99499.65;715209;1202;114338;-70
2021/12/05 12:52:20;;;;;;;130.73;45.83;;;;;;;2.77;87.28;99505.16;716217;1202;114322;-74
2021/12/05 13:23:08;;;;;;;224.15;71.63;;;;;;;2.69;87.21;99527.32;714558;1203;113920;-70
2021/12/05 13:38:40;;;;;;;144.68;53.88;;;;;;;2.54;87.93;99539.55;718097;1199;114171;-71
2021/12/05 13:53:51;;;;;;;174.05;62.70;;;;;;;2.49;88.36;99548.45;719686;1199;114875;-70
2021/12/05 14:08:56;;;;;;;396.83;102.65;;;;;;;2.40;88.17;99559.41;714227;1199;114263;-70
2021/12/05 14:24:01;;;;;;;359.53;122.48;;;;;;;2.23;88.69;99588.13;714242;1202;114092;-72
2021/12/05 14:39:14;;;;;;;234.40;93.13;;;;;;;2.07;89.25;99607.25;714188;1200;115783;-72
2021/12/05 14:54:19;;;;;;;155.68;59.40;;;;;;;1.98;90.23;99625.94;714276;1199;114256;-70
2021/12/05 15:09:31;;;;;;;193.17;59.27;;;;;;;1.97;89.98;99613.92;714105;1200;115038;-70
2021/12/05 15:24:34;;;;;;;104.83;39.37;;;;;;;1.96;90.28;99636.36;714154;1177;113801;-71
2021/12/05 15:39:42;;;;;;;87.55;32.73;;;;;;;1.97;91.20;99650.15;714362;1199;114485;-70
2021/12/05 15:54:46;;;;;;;222.83;82.07;;;;;;;2.06;91.28;99649.57;714312;1203;113893;-70
2021/12/05 16:09:48;;;;;;;125.73;45.80;;;;;;;2.07;92.29;99660.73;714454;1177;113827;-70
2021/12/05 16:24:50;;;;;;;81.35;32.08;;;;;;;2.02;92.23;99680.89;713893;1199;114208;-70
2021/12/05 16:39:57;;;;;;;194.93;70.53;;;;;;;2.10;93.18;99696.77;714282;1200;114363;-70
2021/12/05 16:55:16;;;;;;;96.58;43.38;;;;;;;2.17;94.00;99700.65;714563;1177;114079;-70
2021/12/05 17:10:25;;;;;;;150.70;52.33;;;;;;;2.29;93.49;99706.81;714348;1200;115242;-70
2021/12/05 17:25:29;;;;;;;93.48;40.68;;;;;;;2.21;94.27;99706.47;714781;1200;114840;-71
2021/12/05 17:40:33;;;;;;;91.35;36.95;;;;;;;2.22;94.36;99708.11;714438;1176;113665;-70
2021/12/05 17:55:42;;;;;;;88.40;34.03;;;;;;;2.25;94.96;99716.52;714739;1189;114585;-72
2021/12/05 18:10:49;;;;;;;115.10;43.07;;;;;;;2.28;95.38;99731.03;714617;1193;113684;-72
2021/12/05 18:25:53;;;;;;;328.70;92.83;;;;;;;2.33;95.70;99745.34;715050;1199;113827;-73
2021/12/05 18:40:59;;;;;;;341.15;104.55;;;;;;;2.35;96.00;99752.19;715117;1200;113949;-73
2021/12/05 18:56:02;;;;;;;90.10;35.83;;;;;;;2.24;96.05;99760.63;714977;1200;114573;-74
2021/12/05 19:26:27;;;;;;;81.05;33.40;;;;;;;2.26;96.34;99751.02;715148;1180;114770;-74
2021/12/05 19:41:31;;;;;;;80.25;28.28;;;;;;;2.31;95.84;99767.92;715941;1199;115188;-73
2021/12/05 19:56:37;;;;;;;133.30;45.70;;;;;;;2.36;95.19;99779.75;715574;1199;114055;-73
2021/12/05 20:11:43;;;;;;;102.15;35.98;;;;;;;2.29;95.48;99779.30;715326;1200;114809;-73
2021/12/05 20:26:47;;;;;;;112.93;35.73;;;;;;;2.22;95.87;99802.14;715242;1199;113821;-74
2021/12/05 20:41:50;;;;;;;74.70;28.80;;;;;;;2.15;95.76;99806.86;715473;1200;114629;-75
2021/12/05 20:56:53;;;;;;;71.37;27.40;;;;;;;2.16;95.96;99805.94;715568;1199;114091;-75
2021/12/05 21:11:56;;;;;;;61.27;23.70;;;;;;;2.14;95.52;99823.30;716518;1200;114153;-76
2021/12/05 21:26:58;;;;;;;53.80;22.27;;;;;;;2.24;95.68;99827.92;714550;1202;114454;-76
2021/12/05 21:42:00;;;;;;;52.73;23.03;;;;;;;2.30;95.00;99845.68;715260;1176;113665;-76
2021/12/05 21:57:03;;;;;;;71.00;25.33;;;;;;;2.34;95.10;99836.80;714717;1200;114261;-75
2021/12/05 22:12:07;;;;;;;104.15;34.40;;;;;;;2.40;95.31;99844.20;714577;1177;114070;-78
2021/12/05 22:27:11;;;;;;;78.23;31.05;;;;;;;2.23;95.13;99839.20;714516;1199;114181;-76
2021/12/05 22:42:13;;;;;;;49.75;21.98;;;;;;;2.04;95.68;99842.89;714461;1203;114053;-75
2021/12/05 22:57:16;;;;;;;60.90;23.50;;;;;;;2.20;95.90;99829.03;714457;1200;113662;-73
2021/12/05 23:12:18;;;;;;;54.50;21.80;;;;;;;2.15;96.67;99831.89;714316;1177;113817;-73
2021/12/05 23:27:20;;;;;;;54.70;22.10;;;;;;;2.11;96.97;99838.17;714179;1180;114666;-75
2021/12/05 23:42:36;;;;;;;57.93;21.97;;;;;;;2.18;97.50;99842.08;714172;1176;113648;-75
2021/12/05 23:57:40;;;;;;;47.23;19.73;;;;;;;2.12;98.02;99853.61;714258;1199;114755;-75
